sensor_id;sensor_type;location;lat;lon;timestamp;P1;durP1;ratioP1;P2;durP2;ratioP2
18693;SDS011;9477;51.414;10.362;2023-04-24T00:00:00;1.30;;;1.00;;
18693;SDS011;9477;51.414;10.362;2023-04-24T00:02:04;1.47;;;1.07;;
18693;SDS011;9477;51.414;10.362;2023-04-24T00:04:08;1.93;;;1.30;;
18693;SDS011;9477;51.414;10.362;2023-04-24T00:06:12;2.67;;;1.30;;
18693;SDS011;9477;51.414;10.362;2023-04-24T00:08:15;1.43;;;1.20;;
18693;SDS011;9477;51.414;10.362;2023-04-24T00:10:18;2.77;;;1.30;;
18693;SDS011;9477;51.414;10.362;2023-04-24T00:12:24;2.40;;;1.10;;
18693;SDS011;9477;51.414;10.362;2023-04-24T00:14:27;1.13;;;1.07;;
18693;SDS011;9477;51.414;10.362;2023-04-24T00:16:32;1.37;;;1.10;;
18693;SDS011;9477;51.414;10.362;2023-04-24T00:18:35;1.57;;;1.20;;
18693;SDS011;9477;51.414;10.362;2023-04-24T00:20:37;1.40;;;1.10;;
18693;SDS011;9477;51.414;10.362;2023-04-24T00:22:41;1.10;;;1.00;;
18693;SDS011;9477;51.414;10.362;2023-04-24T00:24:43;1.20;;;1.10;;
18693;SDS011;9477;51.414;10.362;2023-04-24T00:26:46;1.20;;;1.10;;
18693;SDS011;9477;51.414;10.362;2023-04-24T00:28:49;1.30;;;1.00;;
18693;SDS011;9477;51.414;10.362;2023-04-24T00:30:53;1.90;;;1.10;;
18693;SDS011;9477;51.414;10.362;2023-04-24T00:32:57;1.70;;;1.17;;
18693;SDS011;9477;51.414;10.362;2023-04-24T00:35:01;1.67;;;0.93;;
18693;SDS011;9477;51.414;10.362;2023-04-24T00:37:04;1.57;;;1.10;;
18693;SDS011;9477;51.414;10.362;2023-04-24T00:39:07;1.17;;;0.90;;
18693;SDS011;9477;51.414;10.362;2023-04-24T00:41:11;1.87;;;1.00;;
18693;SDS011;9477;51.414;10.362;2023-04-24T00:43:13;0.83;;;0.80;;
18693;SDS011;9477;51.414;10.362;2023-04-24T00:45:19;0.70;;;0.70;;
18693;SDS011;9477;51.414;10.362;2023-04-24T00:47:22;1.43;;;0.90;;
18693;SDS011;9477;51.414;10.362;2023-04-24T00:49:27;0.93;;;0.77;;
18693;SDS011;9477;51.414;10.362;2023-04-24T00:51:30;2.30;;;1.00;;
18693;SDS011;9477;51.414;10.362;2023-04-24T00:53:33;1.17;;;0.90;;
18693;SDS011;9477;51.414;10.362;2023-04-24T00:55:36;1.20;;;1.00;;
18693;SDS011;9477;51.414;10.362;2023-04-24T00:57:39;0.80;;;0.80;;
18693;SDS011;9477;51.414;10.362;2023-04-24T00:59:42;1.07;;;0.87;;
18693;SDS011;9477;51.414;10.362;2023-04-24T01:01:46;4.13;;;1.03;;
18693;SDS011;9477;51.414;10.362;2023-04-24T01:03:51;1.23;;;0.90;;
18693;SDS011;9477;51.414;10.362;2023-04-24T01:05:57;1.70;;;1.03;;
18693;SDS011;9477;51.414;10.362;2023-04-24T01:08:00;1.37;;;1.10;;
18693;SDS011;9477;51.414;10.362;2023-04-24T01:10:05;3.47;;;1.00;;
18693;SDS011;9477;51.414;10.362;2023-04-24T01:12:23;2.03;;;1.10;;
18693;SDS011;9477;51.414;10.362;2023-04-24T01:14:26;2.40;;;0.90;;
18693;SDS011;9477;51.414;10.362;2023-04-24T01:16:29;3.17;;;1.10;;
18693;SDS011;9477;51.414;10.362;2023-04-24T01:18:32;1.27;;;0.90;;
18693;SDS011;9477;51.414;10.362;2023-04-24T01:20:34;1.73;;;1.00;;
18693;SDS011;9477;51.414;10.362;2023-04-24T01:22:42;1.70;;;1.27;;
18693;SDS011;9477;51.414;10.362;2023-04-24T01:24:45;1.30;;;1.10;;
18693;SDS011;9477;51.414;10.362;2023-04-24T01:26:48;2.23;;;1.10;;
18693;SDS011;9477;51.414;10.362;2023-04-24T01:28:51;2.67;;;1.10;;
18693;SDS011;9477;51.414;10.362;2023-04-24T01:30:55;1.10;;;1.00;;
18693;SDS011;9477;51.414;10.362;2023-04-24T01:32:58;1.73;;;1.17;;
18693;SDS011;9477;51.414;10.362;2023-04-24T01:35:01;3.07;;;1.10;;
18693;SDS011;9477;51.414;10.362;2023-04-24T01:37:05;1.90;;;1.10;;
18693;SDS011;9477;51.414;10.362;2023-04-24T01:39:09;2.17;;;1.50;;
18693;SDS011;9477;51.414;10.362;2023-04-24T01:41:12;1.77;;;1.10;;
18693;SDS011;9477;51.414;10.362;2023-04-24T01:43:15;2.70;;;1.03;;
18693;SDS011;9477;51.414;10.362;2023-04-24T01:45:18;2.53;;;1.10;;
18693;SDS011;9477;51.414;10.362;2023-04-24T01:47:21;4.43;;;1.20;;
18693;SDS011;9477;51.414;10.362;2023-04-24T01:49:24;1.30;;;1.20;;
18693;SDS011;9477;51.414;10.362;2023-04-24T01:51:27;1.57;;;1.07;;
18693;SDS011;9477;51.414;10.362;2023-04-24T01:53:30;1.10;;;1.00;;
18693;SDS011;9477;51.414;10.362;2023-04-24T01:55:34;1.10;;;1.00;;
18693;SDS011;9477;51.414;10.362;2023-04-24T01:57:37;1.00;;;1.00;;
18693;SDS011;9477;51.414;10.362;2023-04-24T01:59:40;1.40;;;1.20;;
18693;SDS011;9477;51.414;10.362;2023-04-24T02:01:43;1.33;;;1.20;;
18693;SDS011;9477;51.414;10.362;2023-04-24T02:03:46;1.37;;;1.27;;
18693;SDS011;9477;51.414;10.362;2023-04-24T02:05:50;6.53;;;1.27;;
18693;SDS011;9477;51.414;10.362;2023-04-24T02:07:52;2.43;;;1.30;;
18693;SDS011;9477;51.414;10.362;2023-04-24T02:09:55;1.60;;;1.30;;
18693;SDS011;9477;51.414;10.362;2023-04-24T02:11:59;2.97;;;1.10;;
18693;SDS011;9477;51.414;10.362;2023-04-24T02:14:02;1.70;;;1.13;;
18693;SDS011;9477;51.414;10.362;2023-04-24T02:16:05;1.27;;;1.17;;
18693;SDS011;9477;51.414;10.362;2023-04-24T02:18:08;1.80;;;1.30;;
18693;SDS011;9477;51.414;10.362;2023-04-24T02:20:14;1.40;;;1.30;;
18693;SDS011;9477;51.414;10.362;2023-04-24T02:22:20;3.37;;;1.60;;
18693;SDS011;9477;51.414;10.362;2023-04-24T02:24:23;2.70;;;1.10;;
18693;SDS011;9477;51.414;10.362;2023-04-24T02:26:26;2.10;;;1.40;;
18693;SDS011;9477;51.414;10.362;2023-04-24T02:28:30;1.67;;;1.33;;
18693;SDS011;9477;51.414;10.362;2023-04-24T02:30:33;2.30;;;1.20;;
18693;SDS011;9477;51.414;10.362;2023-04-24T02:32:36;1.43;;;1.10;;
18693;SDS011;9477;51.414;10.362;2023-04-24T02:34:40;3.87;;;1.37;;
18693;SDS011;9477;51.414;10.362;2023-04-24T02:36:43;2.30;;;1.20;;
18693;SDS011;9477;51.414;10.362;2023-04-24T02:38:45;2.47;;;1.10;;
18693;SDS011;9477;51.414;10.362;2023-04-24T02:40:48;1.30;;;1.20;;
18693;SDS011;9477;51.414;10.362;2023-04-24T02:42:52;3.63;;;1.60;;
18693;SDS011;9477;51.414;10.362;2023-04-24T02:44:56;1.27;;;1.00;;
18693;SDS011;9477;51.414;10.362;2023-04-24T02:46:59;2.10;;;1.20;;
18693;SDS011;9477;51.414;10.362;2023-04-24T02:49:02;1.33;;;1.23;;
18693;SDS011;9477;51.414;10.362;2023-04-24T02:51:05;1.53;;;1.23;;
18693;SDS011;9477;51.414;10.362;2023-04-24T02:53:08;2.60;;;1.27;;
18693;SDS011;9477;51.414;10.362;2023-04-24T02:55:12;1.93;;;1.33;;
18693;SDS011;9477;51.414;10.362;2023-04-24T02:57:15;2.43;;;1.40;;
18693;SDS011;9477;51.414;10.362;2023-04-24T02:59:17;1.73;;;1.40;;
18693;SDS011;9477;51.414;10.362;2023-04-24T03:01:22;1.50;;;1.20;;
18693;SDS011;9477;51.414;10.362;2023-04-24T03:03:24;2.53;;;1.40;;
18693;SDS011;9477;51.414;10.362;2023-04-24T03:05:28;1.60;;;1.30;;
18693;SDS011;9477;51.414;10.362;2023-04-24T03:07:31;3.37;;;1.30;;
18693;SDS011;9477;51.414;10.362;2023-04-24T03:09:34;4.40;;;1.37;;
18693;SDS011;9477;51.414;10.362;2023-04-24T03:11:37;3.57;;;1.30;;
18693;SDS011;9477;51.414;10.362;2023-04-24T03:13:40;1.67;;;1.40;;
18693;SDS011;9477;51.414;10.362;2023-04-24T03:15:43;1.50;;;1.40;;
18693;SDS011;9477;51.414;10.362;2023-04-24T03:17:49;3.67;;;1.40;;
18693;SDS011;9477;51.414;10.362;2023-04-24T03:19:54;2.43;;;1.60;;
18693;SDS011;9477;51.414;10.362;2023-04-24T03:21:57;2.50;;;1.63;;
18693;SDS011;9477;51.414;10.362;2023-04-24T03:24:00;2.03;;;1.60;;
18693;SDS011;9477;51.414;10.362;2023-04-24T03:26:03;2.83;;;1.80;;
18693;SDS011;9477;51.414;10.362;2023-04-24T03:28:06;2.13;;;1.40;;
18693;SDS011;9477;51.414;10.362;2023-04-24T03:30:09;3.00;;;1.73;;
18693;SDS011;9477;51.414;10.362;2023-04-24T03:32:11;4.20;;;1.77;;
18693;SDS011;9477;51.414;10.362;2023-04-24T03:34:16;2.70;;;1.63;;
18693;SDS011;9477;51.414;10.362;2023-04-24T03:36:18;1.80;;;1.60;;
18693;SDS011;9477;51.414;10.362;2023-04-24T03:38:21;2.70;;;1.57;;
18693;SDS011;9477;51.414;10.362;2023-04-24T03:40:24;3.50;;;1.50;;
18693;SDS011;9477;51.414;10.362;2023-04-24T03:42:27;2.80;;;1.97;;
18693;SDS011;9477;51.414;10.362;2023-04-24T03:44:30;3.93;;;1.50;;
18693;SDS011;9477;51.414;10.362;2023-04-24T03:46:33;2.73;;;1.40;;
18693;SDS011;9477;51.414;10.362;2023-04-24T03:48:36;2.50;;;1.80;;
18693;SDS011;9477;51.414;10.362;2023-04-24T03:50:40;3.77;;;1.57;;
18693;SDS011;9477;51.414;10.362;2023-04-24T03:52:43;3.33;;;1.70;;
18693;SDS011;9477;51.414;10.362;2023-04-24T03:54:47;4.47;;;1.60;;
18693;SDS011;9477;51.414;10.362;2023-04-24T03:56:50;2.10;;;1.57;;
18693;SDS011;9477;51.414;10.362;2023-04-24T03:58:53;2.37;;;1.47;;
18693;SDS011;9477;51.414;10.362;2023-04-24T04:00:56;2.60;;;1.40;;
18693;SDS011;9477;51.414;10.362;2023-04-24T04:03:01;4.40;;;1.90;;
18693;SDS011;9477;51.414;10.362;2023-04-24T04:05:04;3.87;;;2.30;;
18693;SDS011;9477;51.414;10.362;2023-04-24T04:07:09;6.03;;;1.80;;
18693;SDS011;9477;51.414;10.362;2023-04-24T04:09:12;2.10;;;1.60;;
18693;SDS011;9477;51.414;10.362;2023-04-24T04:11:15;2.90;;;1.70;;
18693;SDS011;9477;51.414;10.362;2023-04-24T04:13:18;2.57;;;1.67;;
18693;SDS011;9477;51.414;10.362;2023-04-24T04:15:21;6.67;;;1.90;;
18693;SDS011;9477;51.414;10.362;2023-04-24T04:17:24;3.70;;;1.83;;
18693;SDS011;9477;51.414;10.362;2023-04-24T04:19:27;2.63;;;1.60;;
18693;SDS011;9477;51.414;10.362;2023-04-24T04:21:30;3.47;;;1.70;;
18693;SDS011;9477;51.414;10.362;2023-04-24T04:23:34;4.83;;;1.70;;
18693;SDS011;9477;51.414;10.362;2023-04-24T04:25:37;2.90;;;1.67;;
18693;SDS011;9477;51.414;10.362;2023-04-24T04:27:40;2.53;;;1.80;;
18693;SDS011;9477;51.414;10.362;2023-04-24T04:29:43;2.33;;;1.80;;
18693;SDS011;9477;51.414;10.362;2023-04-24T04:31:46;2.43;;;1.77;;
18693;SDS011;9477;51.414;10.362;2023-04-24T04:33:49;2.37;;;1.77;;
18693;SDS011;9477;51.414;10.362;2023-04-24T04:35:52;4.47;;;2.03;;
18693;SDS011;9477;51.414;10.362;2023-04-24T04:37:54;3.53;;;2.00;;
18693;SDS011;9477;51.414;10.362;2023-04-24T04:40:02;3.67;;;1.80;;
18693;SDS011;9477;51.414;10.362;2023-04-24T04:42:07;2.73;;;1.60;;
18693;SDS011;9477;51.414;10.362;2023-04-24T04:44:10;3.43;;;1.80;;
18693;SDS011;9477;51.414;10.362;2023-04-24T04:46:14;5.00;;;1.90;;
18693;SDS011;9477;51.414;10.362;2023-04-24T04:48:17;2.93;;;1.77;;
18693;SDS011;9477;51.414;10.362;2023-04-24T04:50:20;10.10;;;2.03;;
18693;SDS011;9477;51.414;10.362;2023-04-24T04:52:24;4.43;;;2.00;;
18693;SDS011;9477;51.414;10.362;2023-04-24T04:54:27;5.47;;;1.93;;
18693;SDS011;9477;51.414;10.362;2023-04-24T04:56:31;2.63;;;2.00;;
18693;SDS011;9477;51.414;10.362;2023-04-24T04:58:34;5.70;;;1.83;;
18693;SDS011;9477;51.414;10.362;2023-04-24T05:00:37;4.40;;;1.70;;
18693;SDS011;9477;51.414;10.362;2023-04-24T05:02:41;4.47;;;1.90;;
18693;SDS011;9477;51.414;10.362;2023-04-24T05:04:44;4.30;;;2.00;;
18693;SDS011;9477;51.414;10.362;2023-04-24T05:06:47;2.73;;;1.60;;
18693;SDS011;9477;51.414;10.362;2023-04-24T05:08:52;3.87;;;1.57;;
18693;SDS011;9477;51.414;10.362;2023-04-24T05:10:58;1.93;;;1.50;;
18693;SDS011;9477;51.414;10.362;2023-04-24T05:13:03;3.50;;;2.37;;
18693;SDS011;9477;51.414;10.362;2023-04-24T05:15:06;4.97;;;1.90;;
18693;SDS011;9477;51.414;10.362;2023-04-24T05:17:09;2.37;;;1.43;;
18693;SDS011;9477;51.414;10.362;2023-04-24T05:19:13;3.60;;;1.43;;
18693;SDS011;9477;51.414;10.362;2023-04-24T05:21:15;1.87;;;1.20;;
18693;SDS011;9477;51.414;10.362;2023-04-24T05:23:18;2.53;;;1.40;;
18693;SDS011;9477;51.414;10.362;2023-04-24T05:25:21;4.27;;;1.40;;
18693;SDS011;9477;51.414;10.362;2023-04-24T05:27:24;1.63;;;1.30;;
18693;SDS011;9477;51.414;10.362;2023-04-24T05:29:29;1.37;;;1.13;;
18693;SDS011;9477;51.414;10.362;2023-04-24T05:31:32;5.07;;;2.60;;
18693;SDS011;9477;51.414;10.362;2023-04-24T05:33:36;1.67;;;1.43;;
18693;SDS011;9477;51.414;10.362;2023-04-24T05:35:39;2.60;;;1.30;;
18693;SDS011;9477;51.414;10.362;2023-04-24T05:37:46;1.63;;;1.20;;
18693;SDS011;9477;51.414;10.362;2023-04-24T05:39:49;4.17;;;1.20;;
18693;SDS011;9477;51.414;10.362;2023-04-24T05:41:52;2.43;;;1.10;;
18693;SDS011;9477;51.414;10.362;2023-04-24T05:43:55;1.50;;;1.00;;
18693;SDS011;9477;51.414;10.362;2023-04-24T05:45:59;1.60;;;0.90;;
18693;SDS011;9477;51.414;10.362;2023-04-24T05:48:02;3.70;;;1.20;;
18693;SDS011;9477;51.414;10.362;2023-04-24T05:50:05;3.63;;;1.63;;
18693;SDS011;9477;51.414;10.362;2023-04-24T05:52:10;1.50;;;1.20;;
18693;SDS011;9477;51.414;10.362;2023-04-24T05:54:12;3.27;;;1.10;;
18693;SDS011;9477;51.414;10.362;2023-04-24T05:56:15;1.90;;;1.53;;
18693;SDS011;9477;51.414;10.362;2023-04-24T05:58:19;2.70;;;1.30;;
18693;SDS011;9477;51.414;10.362;2023-04-24T06:00:21;1.30;;;1.00;;
18693;SDS011;9477;51.414;10.362;2023-04-24T06:02:27;1.67;;;0.90;;
18693;SDS011;9477;51.414;10.362;2023-04-24T06:04:34;2.50;;;1.30;;
18693;SDS011;9477;51.414;10.362;2023-04-24T06:06:38;3.93;;;1.20;;
18693;SDS011;9477;51.414;10.362;2023-04-24T06:08:44;2.00;;;1.20;;
18693;SDS011;9477;51.414;10.362;2023-04-24T06:11:04;2.37;;;1.07;;
18693;SDS011;9477;51.414;10.362;2023-04-24T06:13:08;3.53;;;1.40;;
18693;SDS011;9477;51.414;10.362;2023-04-24T06:15:12;2.77;;;1.47;;
18693;SDS011;9477;51.414;10.362;2023-04-24T06:17:22;1.73;;;1.13;;
18693;SDS011;9477;51.414;10.362;2023-04-24T06:19:32;1.23;;;1.07;;
18693;SDS011;9477;51.414;10.362;2023-04-24T06:21:36;3.20;;;1.30;;
18693;SDS011;9477;51.414;10.362;2023-04-24T06:23:40;1.00;;;0.93;;
18693;SDS011;9477;51.414;10.362;2023-04-24T06:25:45;1.50;;;1.10;;
18693;SDS011;9477;51.414;10.362;2023-04-24T06:27:53;2.10;;;1.20;;
18693;SDS011;9477;51.414;10.362;2023-04-24T06:29:58;2.67;;;1.73;;
18693;SDS011;9477;51.414;10.362;2023-04-24T06:32:06;1.93;;;1.20;;
18693;SDS011;9477;51.414;10.362;2023-04-24T06:34:12;2.03;;;1.60;;
18693;SDS011;9477;51.414;10.362;2023-04-24T06:36:21;1.87;;;1.40;;
18693;SDS011;9477;51.414;10.362;2023-04-24T06:39:10;2.10;;;1.30;;
18693;SDS011;9477;51.414;10.362;2023-04-24T06:41:19;1.90;;;1.30;;
18693;SDS011;9477;51.414;10.362;2023-04-24T06:43:22;1.30;;;1.20;;
18693;SDS011;9477;51.414;10.362;2023-04-24T06:45:25;1.23;;;0.90;;
18693;SDS011;9477;51.414;10.362;2023-04-24T06:47:28;4.30;;;1.20;;
18693;SDS011;9477;51.414;10.362;2023-04-24T06:49:36;1.30;;;1.07;;
18693;SDS011;9477;51.414;10.362;2023-04-24T06:52:40;0.90;;;0.90;;
18693;SDS011;9477;51.414;10.362;2023-04-24T06:55:24;1.57;;;1.20;;
18693;SDS011;9477;51.414;10.362;2023-04-24T06:57:27;1.83;;;1.30;;
18693;SDS011;9477;51.414;10.362;2023-04-24T06:59:31;1.50;;;1.20;;
18693;SDS011;9477;51.414;10.362;2023-04-24T07:01:34;1.43;;;1.00;;
18693;SDS011;9477;51.414;10.362;2023-04-24T07:03:38;2.80;;;1.20;;
18693;SDS011;9477;51.414;10.362;2023-04-24T07:05:41;1.77;;;1.20;;
18693;SDS011;9477;51.414;10.362;2023-04-24T07:07:45;1.27;;;1.10;;
18693;SDS011;9477;51.414;10.362;2023-04-24T07:09:49;1.53;;;1.10;;
18693;SDS011;9477;51.414;10.362;2023-04-24T07:11:52;3.00;;;1.30;;
18693;SDS011;9477;51.414;10.362;2023-04-24T07:13:55;2.43;;;1.20;;
18693;SDS011;9477;51.414;10.362;2023-04-24T07:15:58;1.50;;;1.20;;
18693;SDS011;9477;51.414;10.362;2023-04-24T07:18:01;1.10;;;1.00;;
18693;SDS011;9477;51.414;10.362;2023-04-24T07:20:06;1.53;;;1.23;;
18693;SDS011;9477;51.414;10.362;2023-04-24T07:22:10;1.03;;;1.00;;
18693;SDS011;9477;51.414;10.362;2023-04-24T07:24:19;3.33;;;1.17;;
18693;SDS011;9477;51.414;10.362;2023-04-24T07:26:24;1.37;;;0.93;;
18693;SDS011;9477;51.414;10.362;2023-04-24T07:28:27;1.63;;;1.20;;
18693;SDS011;9477;51.414;10.362;2023-04-24T07:30:35;1.97;;;1.33;;
18693;SDS011;9477;51.414;10.362;2023-04-24T07:32:38;1.93;;;1.10;;
18693;SDS011;9477;51.414;10.362;2023-04-24T07:34:41;2.97;;;1.07;;
18693;SDS011;9477;51.414;10.362;2023-04-24T07:36:44;2.03;;;1.10;;
18693;SDS011;9477;51.414;10.362;2023-04-24T07:38:48;1.43;;;1.23;;
18693;SDS011;9477;51.414;10.362;2023-04-24T07:40:52;2.87;;;1.20;;
18693;SDS011;9477;51.414;10.362;2023-04-24T07:42:55;2.40;;;1.20;;
18693;SDS011;9477;51.414;10.362;2023-04-24T07:44:58;2.87;;;1.50;;
18693;SDS011;9477;51.414;10.362;2023-04-24T07:47:03;4.00;;;1.30;;
18693;SDS011;9477;51.414;10.362;2023-04-24T07:49:06;2.30;;;1.37;;
18693;SDS011;9477;51.414;10.362;2023-04-24T07:51:14;1.20;;;1.10;;
18693;SDS011;9477;51.414;10.362;2023-04-24T07:53:17;2.87;;;1.23;;
18693;SDS011;9477;51.414;10.362;2023-04-24T07:55:22;3.77;;;1.43;;
18693;SDS011;9477;51.414;10.362;2023-04-24T07:57:29;2.60;;;1.40;;
18693;SDS011;9477;51.414;10.362;2023-04-24T07:59:32;1.43;;;1.20;;
18693;SDS011;9477;51.414;10.362;2023-04-24T08:01:35;3.17;;;1.53;;
18693;SDS011;9477;51.414;10.362;2023-04-24T08:03:38;1.50;;;1.40;;
18693;SDS011;9477;51.414;10.362;2023-04-24T08:05:42;2.00;;;1.40;;
18693;SDS011;9477;51.414;10.362;2023-04-24T08:07:45;1.43;;;1.33;;
18693;SDS011;9477;51.414;10.362;2023-04-24T08:09:49;2.20;;;1.50;;
18693;SDS011;9477;51.414;10.362;2023-04-24T08:11:53;2.20;;;1.50;;
18693;SDS011;9477;51.414;10.362;2023-04-24T08:13:58;3.80;;;1.60;;
18693;SDS011;9477;51.414;10.362;2023-04-24T08:16:01;3.40;;;1.60;;
18693;SDS011;9477;51.414;10.362;2023-04-24T08:18:03;1.70;;;1.50;;
18693;SDS011;9477;51.414;10.362;2023-04-24T08:20:08;4.50;;;1.50;;
18693;SDS011;9477;51.414;10.362;2023-04-24T08:22:14;2.23;;;1.60;;
18693;SDS011;9477;51.414;10.362;2023-04-24T08:24:18;2.30;;;1.40;;
18693;SDS011;9477;51.414;10.362;2023-04-24T08:26:20;3.87;;;1.60;;
18693;SDS011;9477;51.414;10.362;2023-04-24T08:28:23;1.70;;;1.40;;
18693;SDS011;9477;51.414;10.362;2023-04-24T08:30:29;2.23;;;1.50;;
18693;SDS011;9477;51.414;10.362;2023-04-24T08:32:32;1.93;;;1.63;;
18693;SDS011;9477;51.414;10.362;2023-04-24T08:34:35;1.57;;;1.47;;
18693;SDS011;9477;51.414;10.362;2023-04-24T08:36:38;2.73;;;1.70;;
18693;SDS011;9477;51.414;10.362;2023-04-24T08:38:47;1.87;;;1.50;;
18693;SDS011;9477;51.414;10.362;2023-04-24T08:40:50;1.60;;;1.50;;
18693;SDS011;9477;51.414;10.362;2023-04-24T08:42:53;2.37;;;1.67;;
18693;SDS011;9477;51.414;10.362;2023-04-24T08:44:57;1.73;;;1.40;;
18693;SDS011;9477;51.414;10.362;2023-04-24T08:47:02;2.63;;;1.50;;
18693;SDS011;9477;51.414;10.362;2023-04-24T08:49:06;1.87;;;1.53;;
18693;SDS011;9477;51.414;10.362;2023-04-24T08:51:09;2.00;;;1.50;;
18693;SDS011;9477;51.414;10.362;2023-04-24T08:53:12;1.70;;;1.60;;
18693;SDS011;9477;51.414;10.362;2023-04-24T08:55:15;2.00;;;1.60;;
18693;SDS011;9477;51.414;10.362;2023-04-24T08:57:19;5.00;;;2.03;;
18693;SDS011;9477;51.414;10.362;2023-04-24T08:59:22;1.53;;;1.43;;
18693;SDS011;9477;51.414;10.362;2023-04-24T09:01:25;1.90;;;1.80;;
18693;SDS011;9477;51.414;10.362;2023-04-24T09:03:31;3.03;;;1.80;;
18693;SDS011;9477;51.414;10.362;2023-04-24T09:05:40;3.40;;;1.80;;
18693;SDS011;9477;51.414;10.362;2023-04-24T09:07:49;4.60;;;2.20;;
18693;SDS011;9477;51.414;10.362;2023-04-24T09:09:56;2.10;;;1.60;;
18693;SDS011;9477;51.414;10.362;2023-04-24T09:11:59;1.60;;;1.50;;
18693;SDS011;9477;51.414;10.362;2023-04-24T09:14:03;2.57;;;1.83;;
18693;SDS011;9477;51.414;10.362;2023-04-24T09:16:06;2.10;;;1.80;;
18693;SDS011;9477;51.414;10.362;2023-04-24T09:18:09;2.83;;;2.17;;
18693;SDS011;9477;51.414;10.362;2023-04-24T09:20:13;2.10;;;1.97;;
18693;SDS011;9477;51.414;10.362;2023-04-24T09:22:16;1.80;;;1.70;;
18693;SDS011;9477;51.414;10.362;2023-04-24T09:24:20;2.53;;;1.63;;
18693;SDS011;9477;51.414;10.362;2023-04-24T09:26:24;1.73;;;1.63;;
18693;SDS011;9477;51.414;10.362;2023-04-24T09:28:29;4.40;;;1.90;;
18693;SDS011;9477;51.414;10.362;2023-04-24T09:30:34;3.93;;;2.03;;
18693;SDS011;9477;51.414;10.362;2023-04-24T09:32:37;2.30;;;1.90;;
18693;SDS011;9477;51.414;10.362;2023-04-24T09:34:40;3.47;;;1.70;;
18693;SDS011;9477;51.414;10.362;2023-04-24T09:36:46;2.10;;;1.90;;
18693;SDS011;9477;51.414;10.362;2023-04-24T09:38:49;2.00;;;1.77;;
18693;SDS011;9477;51.414;10.362;2023-04-24T09:41:00;4.30;;;1.87;;
18693;SDS011;9477;51.414;10.362;2023-04-24T09:43:04;4.43;;;1.60;;
18693;SDS011;9477;51.414;10.362;2023-04-24T09:45:13;4.00;;;2.00;;
18693;SDS011;9477;51.414;10.362;2023-04-24T09:47:16;2.87;;;1.80;;
18693;SDS011;9477;51.414;10.362;2023-04-24T09:49:21;2.60;;;1.90;;
18693;SDS011;9477;51.414;10.362;2023-04-24T09:51:33;2.70;;;1.80;;
18693;SDS011;9477;51.414;10.362;2023-04-24T09:53:39;2.60;;;1.73;;
18693;SDS011;9477;51.414;10.362;2023-04-24T09:55:47;3.77;;;1.70;;
18693;SDS011;9477;51.414;10.362;2023-04-24T09:57:52;2.60;;;1.87;;
18693;SDS011;9477;51.414;10.362;2023-04-24T09:59:56;2.17;;;1.90;;
18693;SDS011;9477;51.414;10.362;2023-04-24T10:02:01;3.70;;;1.80;;
18693;SDS011;9477;51.414;10.362;2023-04-24T10:04:14;2.40;;;1.90;;
18693;SDS011;9477;51.414;10.362;2023-04-24T10:06:18;3.67;;;2.00;;
18693;SDS011;9477;51.414;10.362;2023-04-24T10:08:21;2.07;;;1.77;;
18693;SDS011;9477;51.414;10.362;2023-04-24T10:10:25;2.20;;;2.00;;
18693;SDS011;9477;51.414;10.362;2023-04-24T10:12:28;4.33;;;2.20;;
18693;SDS011;9477;51.414;10.362;2023-04-24T10:14:32;4.03;;;2.20;;
18693;SDS011;9477;51.414;10.362;2023-04-24T10:16:35;2.40;;;2.13;;
18693;SDS011;9477;51.414;10.362;2023-04-24T10:18:39;3.90;;;2.13;;
18693;SDS011;9477;51.414;10.362;2023-04-24T10:20:42;3.17;;;2.30;;
18693;SDS011;9477;51.414;10.362;2023-04-24T10:22:45;2.37;;;2.10;;
18693;SDS011;9477;51.414;10.362;2023-04-24T10:24:51;3.37;;;1.90;;
18693;SDS011;9477;51.414;10.362;2023-04-24T10:26:56;2.50;;;1.90;;
18693;SDS011;9477;51.414;10.362;2023-04-24T10:28:59;2.67;;;2.13;;
18693;SDS011;9477;51.414;10.362;2023-04-24T10:31:04;2.40;;;2.20;;
18693;SDS011;9477;51.414;10.362;2023-04-24T10:33:07;3.20;;;2.07;;
18693;SDS011;9477;51.414;10.362;2023-04-24T10:35:11;2.13;;;1.73;;
18693;SDS011;9477;51.414;10.362;2023-04-24T10:37:15;3.37;;;2.30;;
18693;SDS011;9477;51.414;10.362;2023-04-24T10:39:18;4.30;;;2.37;;
18693;SDS011;9477;51.414;10.362;2023-04-24T10:41:28;3.00;;;2.60;;
18693;SDS011;9477;51.414;10.362;2023-04-24T10:43:35;3.77;;;2.27;;
18693;SDS011;9477;51.414;10.362;2023-04-24T10:45:38;2.93;;;2.17;;
18693;SDS011;9477;51.414;10.362;2023-04-24T10:47:50;2.50;;;1.93;;
18693;SDS011;9477;51.414;10.362;2023-04-24T10:49:54;6.43;;;2.30;;
18693;SDS011;9477;51.414;10.362;2023-04-24T10:52:02;3.27;;;2.50;;
18693;SDS011;9477;51.414;10.362;2023-04-24T10:54:21;6.37;;;2.80;;
18693;SDS011;9477;51.414;10.362;2023-04-24T10:56:25;2.53;;;2.03;;
18693;SDS011;9477;51.414;10.362;2023-04-24T10:58:38;2.87;;;2.13;;
18693;SDS011;9477;51.414;10.362;2023-04-24T11:00:42;2.00;;;1.80;;
18693;SDS011;9477;51.414;10.362;2023-04-24T11:02:47;2.47;;;1.50;;
18693;SDS011;9477;51.414;10.362;2023-04-24T11:04:52;3.73;;;1.50;;
18693;SDS011;9477;51.414;10.362;2023-04-24T11:06:55;2.03;;;1.40;;
18693;SDS011;9477;51.414;10.362;2023-04-24T11:09:01;1.70;;;1.60;;
18693;SDS011;9477;51.414;10.362;2023-04-24T11:11:10;2.43;;;1.70;;
18693;SDS011;9477;51.414;10.362;2023-04-24T11:13:16;4.10;;;1.50;;
18693;SDS011;9477;51.414;10.362;2023-04-24T11:15:25;1.37;;;1.27;;
18693;SDS011;9477;51.414;10.362;2023-04-24T11:17:31;2.93;;;1.63;;
18693;SDS011;9477;51.414;10.362;2023-04-24T11:19:35;1.43;;;1.33;;
18693;SDS011;9477;51.414;10.362;2023-04-24T11:21:39;2.77;;;1.50;;
18693;SDS011;9477;51.414;10.362;2023-04-24T11:23:43;1.47;;;1.37;;
18693;SDS011;9477;51.414;10.362;2023-04-24T11:25:59;2.93;;;1.50;;
18693;SDS011;9477;51.414;10.362;2023-04-24T11:28:14;2.13;;;1.50;;
18693;SDS011;9477;51.414;10.362;2023-04-24T11:30:18;3.70;;;1.43;;
18693;SDS011;9477;51.414;10.362;2023-04-24T11:32:27;1.50;;;1.40;;
18693;SDS011;9477;51.414;10.362;2023-04-24T11:34:30;1.73;;;1.60;;
18693;SDS011;9477;51.414;10.362;2023-04-24T11:36:37;4.50;;;1.70;;
18693;SDS011;9477;51.414;10.362;2023-04-24T11:38:41;1.93;;;1.53;;
18693;SDS011;9477;51.414;10.362;2023-04-24T11:40:45;2.50;;;1.57;;
18693;SDS011;9477;51.414;10.362;2023-04-24T11:42:51;2.10;;;1.70;;
18693;SDS011;9477;51.414;10.362;2023-04-24T11:44:57;2.87;;;1.40;;
18693;SDS011;9477;51.414;10.362;2023-04-24T11:47:01;2.37;;;1.50;;
18693;SDS011;9477;51.414;10.362;2023-04-24T11:49:05;1.83;;;1.40;;
18693;SDS011;9477;51.414;10.362;2023-04-24T11:51:08;1.27;;;1.17;;
18693;SDS011;9477;51.414;10.362;2023-04-24T11:53:12;2.53;;;1.20;;
18693;SDS011;9477;51.414;10.362;2023-04-24T11:55:25;1.00;;;0.90;;
18693;SDS011;9477;51.414;10.362;2023-04-24T11:57:29;2.13;;;1.10;;
18693;SDS011;9477;51.414;10.362;2023-04-24T11:59:35;1.87;;;1.00;;
18693;SDS011;9477;51.414;10.362;2023-04-24T12:01:42;1.87;;;1.57;;
18693;SDS011;9477;51.414;10.362;2023-04-24T12:03:49;1.43;;;1.33;;
18693;SDS011;9477;51.414;10.362;2023-04-24T12:06:05;2.27;;;1.27;;
18693;SDS011;9477;51.414;10.362;2023-04-24T12:08:09;2.70;;;1.40;;
18693;SDS011;9477;51.414;10.362;2023-04-24T12:10:12;1.90;;;1.30;;
18693;SDS011;9477;51.414;10.362;2023-04-24T12:12:16;3.47;;;1.40;;
18693;SDS011;9477;51.414;10.362;2023-04-24T12:14:19;2.40;;;1.23;;
18693;SDS011;9477;51.414;10.362;2023-04-24T12:16:22;2.70;;;1.40;;
18693;SDS011;9477;51.414;10.362;2023-04-24T12:18:28;1.30;;;1.20;;
18693;SDS011;9477;51.414;10.362;2023-04-24T12:20:31;2.03;;;1.50;;
18693;SDS011;9477;51.414;10.362;2023-04-24T12:22:45;1.30;;;1.20;;
18693;SDS011;9477;51.414;10.362;2023-04-24T12:24:58;1.37;;;1.20;;
18693;SDS011;9477;51.414;10.362;2023-04-24T12:27:02;1.30;;;1.20;;
18693;SDS011;9477;51.414;10.362;2023-04-24T12:29:05;1.10;;;1.00;;
18693;SDS011;9477;51.414;10.362;2023-04-24T12:31:09;1.70;;;0.93;;